Date,TemperatureHighF,TemperatureAvgF,TemperatureLowF,DewpointHighF,DewpointAvgF,DewpointLowF,HumidityHigh,HumidityAvg,HumidityLow,PressureMaxIn,PressureMinIn,WindSpeedMaxMPH,WindSpeedAvgMPH,GustSpeedMaxMPH,PrecipitationSumIn
2013-1-1,49.4,43.0,32.5,48.3,39.3,27.9,96,87,72,30.37,30.08,16,5,16,0.04
2013-1-2,41.7,33.5,25.2,30.6,27.7,22.8,91,80,59,30.45,30.35,14,2,14,0.00
2013-1-3,46.1,34.8,22.9,33.3,27.1,20.7,93,75,53,30.57,30.44,14,2,15,0.00
2013-1-4,44.7,39.8,35.7,39.0,35.6,31.0,94,85,65,30.61,30.47,9,1,11,0.09
2013-1-5,56.0,42.8,32.4,42.8,38.4,30.3,95,85,57,30.48,30.31,7,1,8,0.02
2013-1-6,57.4,39.5,27.2,35.3,29.4,23.0,95,71,36,30.50,30.38,13,3,13,0.00
2013-1-7,54.8,39.3,22.5,38.3,30.4,19.8,92,72,49,30.44,30.18,10,1,11,0.00
2013-1-8,52.7,47.6,44.8,51.6,45.0,38.3,97,91,71,30.18,29.98,13,2,16,0.90
2013-1-9,62.3,56.7,51.3,61.2,55.5,49.9,98,96,94,30.12,29.94,18,5,21,1.82
2013-1-10,57.7,51.4,46.1,56.1,47.6,43.8,97,87,68,30.09,30.02,12,2,13,0.01
2013-1-11,73.8,58.9,43.2,63.3,52.6,40.6,96,81,50,30.06,29.86,19,4,19,0.00
2013-1-12,74.9,61.3,38.3,69.2,57.5,32.0,96,87,65,30.01,29.69,18,5,24,0.01
2013-1-13,47.8,38.8,33.0,32.2,27.2,23.0,78,63,48,30.33,30.01,20,8,21,0.00
2013-1-14,45.7,36.6,30.0,30.0,26.2,21.9,76,66,50,30.39,30.21,15,6,18,0.00
2013-1-15,38.8,34.2,28.4,32.5,29.8,24.4,93,84,65,30.35,30.20,15,5,17,0.05
2013-1-16,49.7,35.3,24.8,28.5,23.9,20.9,87,66,34,30.44,30.27,12,2,17,0.00
2013-1-17,62.8,43.5,30.4,39.5,31.6,25.3,88,66,34,30.59,30.37,13,2,16,0.00
2013-1-18,62.8,42.8,25.8,38.6,31.7,23.8,93,69,37,30.60,30.38,15,2,15,0.00
2013-1-19,67.0,53.3,38.4,48.8,44.1,36.0,95,73,47,30.37,30.21,14,3,16,0.00
2013-1-20,73.2,51.0,33.9,45.2,39.5,32.1,95,70,30,30.32,30.13,13,2,14,0.00
2013-1-21,62.1,46.3,34.2,44.1,38.0,32.1,94,75,45,30.35,30.19,12,2,13,0.00
2013-1-22,69.1,51.4,34.0,51.2,42.5,31.0,91,73,51,30.40,30.25,11,2,13,0.00
2013-1-23,74.4,59.9,44.7,58.0,52.6,42.8,96,78,54,30.38,30.23,14,4,16,0.00
2013-1-24,83.4,65.4,48.8,62.6,56.9,47.2,98,77,44,30.27,30.10,14,3,14,0.00
2013-1-25,71.3,58.6,49.4,61.2,53.5,44.0,97,83,65,30.24,30.09,14,4,16,0.00
2013-1-26,56.9,51.2,47.8,51.1,47.5,44.8,96,87,79,30.28,30.17,7,2,7,0.00
2013-1-27,76.6,65.5,51.7,64.7,60.2,50.6,97,84,61,30.17,29.99,18,6,22,0.00
2013-1-28,78.9,71.4,66.6,67.7,65.1,63.7,92,81,64,30.06,29.88,24,7,25,0.00
2013-1-29,80.4,67.5,49.4,67.0,57.8,28.5,87,72,40,29.91,29.52,25,8,26,0.03
2013-1-30,55.1,45.7,29.0,33.2,25.6,16.0,73,47,23,30.27,29.81,22,5,24,0.00
2013-1-31,68.9,48.0,26.7,29.9,23.9,19.5,80,45,16,30.35,30.22,11,2,16,0.00
2013-2-1,64.9,49.9,33.4,40.5,33.2,25.9,75,54,38,30.45,30.23,14,4,19,0.00
2013-2-2,70.6,55.3,39.7,52.1,43.5,33.0,90,67,41,30.38,30.25,10,2,13,0.00
2013-2-3,68.8,58.9,31.3,41.0,31.7,25.9,90,40,21,30.42,30.09,16,3,16,0.00
2013-2-4,75.5,59.2,51.9,59.0,52.6,42.0,89,79,47,30.08,29.83,12,2,18,0.00
2013-2-5,72.2,55.7,46.5,56.7,49.4,41.9,94,81,52,30.06,29.91,10,2,12,0.00
2013-2-6,72.7,59.9,48.3,63.2,55.7,46.0,96,87,65,30.07,29.90,9,2,11,0.00
2013-2-7,83.0,66.1,55.0,61.0,53.2,41.5,93,68,24,30.17,29.88,20,5,22,0.00
2013-2-8,65.2,52.6,42.1,45.6,34.3,22.9,75,54,20,30.30,30.17,15,4,17,0.00
2013-2-9,65.5,55.5,48.5,64.0,53.5,38.8,97,93,68,30.19,29.82,16,4,22,0.02
2013-2-10,67.5,58.1,50.0,65.0,41.7,30.3,96,59,27,30.06,29.73,16,2,32,0.24
2013-2-11,54.4,48.8,47.2,48.0,45.6,41.0,93,89,67,30.20,30.04,11,2,15,0.60
2013-2-12,66.5,52.2,44.6,54.5,47.1,36.9,97,84,48,30.13,29.88,17,3,22,0.17
2013-2-13,58.7,45.6,34.3,39.9,36.3,31.1,90,71,40,30.25,30.11,16,4,23,0.00
2013-2-14,69.9,53.3,31.3,43.0,36.8,29.5,96,59,23,30.20,30.05,12,2,14,0.00
2013-2-15,54.1,46.3,33.3,41.1,34.1,25.6,89,63,45,30.48,30.14,19,4,20,0.00
2013-2-16,63.4,44.0,27.6,35.1,28.9,23.0,84,59,27,30.52,30.20,14,2,17,0.00
2013-2-17,70.5,55.6,37.7,49.1,36.1,30.0,75,51,26,30.20,29.93,24,6,24,0.00
2013-2-18,79.5,64.7,49.6,59.0,46.1,19.5,80,56,12,30.11,29.79,22,6,26,0.00
2013-2-19,63.1,51.8,31.9,35.0,29.6,22.2,84,46,22,30.31,30.11,15,4,15,0.00
2013-2-20,55.6,50.7,46.9,48.9,37.7,30.0,95,63,38,30.14,29.70,16,6,21,0.03
2013-2-21,71.6,56.3,40.8,64.0,44.0,26.0,98,69,18,29.89,29.60,19,4,22,0.31
2013-2-22,49.9,43.1,34.1,40.9,32.4,26.7,84,67,50,30.12,29.88,14,5,18,0.00
2013-2-23,62.4,45.3,28.6,37.5,32.0,25.7,91,62,35,30.09,29.93,9,2,12,0.00
2013-2-24,72.7,53.6,31.6,51.0,42.2,28.6,92,68,40,29.95,29.57,15,4,20,0.00
2013-2-25,60.4,52.6,42.8,56.0,37.9,25.9,91,59,28,29.78,29.53,32,7,34,0.00
2013-2-26,61.7,46.6,37.1,36.1,32.0,28.9,78,59,31,29.95,29.77,19,5,27,0.00
2013-2-27,58.7,48.7,35.4,35.0,28.2,21.6,81,47,28,30.25,29.87,22,4,22,0.00
2013-2-28,59.9,46.4,31.7,32.2,28.2,24.9,82,52,27,30.35,30.20,18,5,22,0.00
2013-3-1,63.9,43.8,27.0,32.1,27.1,22.2,86,56,21,30.33,30.17,18,2,20,0.00
2013-3-2,58.7,42.3,29.6,32.2,27.5,23.0,85,59,29,30.46,30.27,16,4,18,0.00
2013-3-3,75.3,56.0,31.4,43.5,32.5,25.4,79,45,22,30.27,29.83,19,6,27,0.00
2013-3-4,83.6,68.0,56.0,50.2,45.7,41.3,72,47,23,29.84,29.63,16,5,24,0.00
2013-3-5,67.3,51.6,30.8,48.8,25.2,10.7,65,40,14,30.39,29.68,27,8,30,0.00
2013-3-6,62.4,43.0,25.2,26.8,22.1,17.6,76,48,19,30.49,30.22,12,2,13,0.00
2013-3-7,71.5,54.4,36.8,50.5,39.9,25.8,77,59,37,30.26,30.09,17,4,18,0.00
2013-3-8,63.0,58.5,54.4,61.2,54.5,49.0,95,87,72,30.17,29.99,14,4,19,0.04
2013-3-9,70.4,64.5,58.8,66.6,61.3,56.6,95,89,81,29.99,29.64,26,6,26,1.03
2013-3-10,59.0,54.2,37.8,58.0,42.2,32.4,96,66,42,30.11,29.73,21,5,22,0.16
2013-3-11,63.0,44.9,29.5,36.1,29.2,22.8,91,60,25,30.18,30.02,15,3,16,0.00
2013-3-12,72.3,55.1,35.4,46.0,35.7,29.5,81,50,30,30.30,30.07,14,4,17,0.00
2013-3-13,70.6,54.8,34.6,43.1,38.1,30.7,87,56,32,30.46,30.29,15,3,16,0.00
2013-3-14,76.9,60.0,39.6,51.0,44.8,35.5,90,60,34,30.37,30.19,19,3,19,0.00
2013-3-15,80.6,66.3,51.8,54.4,48.6,42.1,92,58,27,30.20,29.94,18,5,20,0.00
2013-3-16,82.5,69.1,56.0,61.2,55.0,47.2,88,63,40,29.95,29.68,20,7,25,0.00
2013-3-17,81.5,69.6,57.8,62.4,59.3,52.3,84,71,47,29.78,29.63,21,3,31,0.00
2013-3-18,75.9,67.2,57.1,65.1,55.0,46.0,94,68,42,29.96,29.68,18,4,19,0.00
2013-3-19,72.0,57.8,39.1,57.5,47.8,35.8,92,70,57,30.10,29.91,16,4,20,0.12
2013-3-20,67.3,55.6,44.6,50.7,43.3,35.8,93,67,32,30.27,30.03,14,4,18,0.18
2013-3-21,73.1,62.3,46.5,59.8,51.9,37.6,82,69,56,30.04,29.56,28,6,28,0.00
2013-3-22,68.8,61.2,47.2,63.1,54.5,43.5,92,79,60,29.80,29.58,16,5,16,0.00
2013-3-23,70.1,55.3,47.2,60.4,50.8,43.5,94,85,70,29.82,29.63,12,4,14,0.00
2013-3-24,57.5,47.1,33.3,54.9,32.3,25.0,91,59,35,30.19,29.70,26,9,27,0.00
2013-3-25,56.4,43.4,30.1,27.2,23.7,20.9,79,48,27,30.43,30.19,18,4,20,0.00
2013-3-26,60.7,43.8,25.5,30.4,25.2,19.8,82,52,26,30.53,30.31,10,2,11,0.00
2013-3-27,70.9,55.6,39.3,48.0,37.8,26.0,70,52,38,30.33,30.11,23,6,23,0.00
2013-3-28,73.0,61.9,50.7,60.2,54.1,47.0,89,76,61,30.20,30.08,16,5,19,0.00
2013-3-29,75.9,66.0,57.8,60.0,57.6,55.0,92,76,56,30.18,30.03,15,5,20,0.00
2013-3-30,81.2,65.6,60.6,63.0,59.0,57.5,92,80,52,30.09,29.86,14,4,18,0.00
2013-3-31,79.7,71.9,63.4,67.0,60.7,56.0,90,69,52,29.96,29.84,14,3,15,0.00
2013-4-1,82.5,66.9,49.0,64.8,57.4,47.1,96,73,47,30.05,29.88,11,2,13,0.00
2013-4-2,71.2,66.4,59.0,64.7,62.0,57.0,95,86,75,29.98,29.82,14,3,16,0.00
2013-4-3,64.5,50.5,48.1,61.5,48.3,45.0,96,92,80,30.15,29.82,22,5,22,0.38
2013-4-4,51.3,46.2,38.9,45.4,41.3,36.4,93,83,71,30.24,30.12,15,4,16,0.01
2013-4-5,68.5,50.9,32.7,50.3,42.3,31.0,96,75,49,30.30,30.05,13,2,13,0.00
2013-4-6,78.2,63.9,50.8,60.4,54.2,47.0,90,72,52,30.06,29.82,18,6,22,0.00
2013-4-7,78.5,67.8,62.0,65.7,61.1,57.4,89,80,62,29.91,29.72,17,6,23,0.00
2013-4-8,73.1,69.0,65.9,67.0,63.6,59.5,89,83,74,29.78,29.65,18,7,21,0.00
2013-4-9,82.7,73.4,68.1,69.5,66.4,64.3,88,79,62,29.68,29.57,23,8,27,0.00
2013-4-10,73.9,48.8,39.7,68.6,44.8,37.4,93,86,71,29.98,29.62,20,7,23,0.54
2013-4-11,64.3,49.6,40.8,45.0,39.7,36.0,88,71,43,30.01,29.83,11,3,13,0.00
2013-4-12,77.3,57.2,38.1,50.9,44.1,36.0,96,67,33,30.00,29.86,15,2,20,0.00
2013-4-13,77.5,63.4,46.3,58.0,50.4,43.5,94,66,32,29.95,29.77,17,3,18,0.05
2013-4-14,86.0,69.3,51.5,68.8,60.5,49.7,96,75,49,29.81,29.53,19,5,23,0.01
2013-4-15,86.1,76.1,68.5,69.6,67.2,65.4,91,75,53,29.75,29.62,19,7,24,0.00
2013-4-16,87.0,76.1,69.7,71.0,67.1,64.2,87,75,54,29.86,29.74,18,6,21,0.00
2013-4-17,82.8,76.2,72.0,71.2,69.4,67.6,95,80,63,29.85,29.63,20,7,25,0.00
2013-4-18,74.8,58.2,46.9,71.2,50.3,37.2,92,76,52,30.13,29.57,28,8,37,0.69
2013-4-19,64.5,49.2,32.3,38.5,33.8,28.1,95,61,26,30.32,30.12,18,4,20,0.00
2013-4-20,70.1,55.9,35.2,45.1,35.4,30.0,87,50,25,30.23,30.00,17,4,17,0.00
2013-4-21,71.7,59.9,45.8,56.2,49.7,42.2,91,70,54,30.17,30.03,14,3,15,0.00
2013-4-22,81.5,68.1,50.0,62.4,57.1,48.0,96,70,49,30.10,29.83,20,4,21,0.00
2013-4-23,71.9,59.0,44.9,66.1,53.1,39.7,93,81,71,30.16,29.81,25,6,25,0.00
2013-4-24,61.5,53.0,39.1,44.3,39.2,31.0,86,61,43,30.31,30.16,20,6,22,0.00
2013-4-25,71.3,60.3,51.2,52.0,46.5,42.0,80,61,43,30.35,30.15,11,2,13,0.00
2013-4-26,77.5,68.3,60.8,69.8,62.1,48.0,96,81,58,30.15,29.94,16,4,17,0.01
2013-4-27,80.9,71.5,61.7,70.0,64.0,56.5,97,78,54,30.06,29.93,16,3,17,0.01
2013-4-28,84.7,72.7,58.4,68.4,61.6,56.0,97,71,44,30.02,29.82,11,2,12,0.00
2013-4-29,82.3,71.3,59.1,69.0,63.2,57.1,97,77,57,29.90,29.76,19,3,26,0.00
2013-4-30,81.3,69.5,57.1,66.2,62.3,55.4,97,79,54,29.83,29.70,14,2,15,0.00
2013-5-1,84.2,73.6,64.2,68.9,65.0,61.7,95,76,56,29.94,29.75,12,3,14,0.00
2013-5-2,71.2,53.4,44.0,64.4,47.0,35.0,87,79,66,30.35,29.89,25,8,27,0.03
2013-5-3,67.0,52.2,37.4,35.3,31.9,27.5,80,50,23,30.35,30.05,25,6,26,0.00
2013-5-4,79.5,60.9,36.5,39.3,33.7,28.9,82,41,17,30.06,29.88,16,3,19,0.00
2013-5-5,72.3,56.7,37.5,49.0,42.0,33.4,89,60,40,30.17,29.99,15,3,16,0.00
2013-5-6,74.5,59.6,42.9,54.4,47.6,40.2,93,67,42,30.13,29.99,7,1,9,0.00
2013-5-7,85.0,70.4,45.3,56.8,50.5,43.0,94,54,27,30.08,29.90,12,3,15,0.00
2013-5-8,83.9,72.1,58.3,65.0,60.2,55.0,91,68,49,30.00,29.85,16,4,22,0.00
2013-5-9,71.6,68.8,63.1,68.2,65.7,59.0,97,90,66,29.96,29.83,21,2,33,1.49
2013-5-10,80.5,70.2,63.6,69.0,65.6,61.8,98,87,62,30.02,29.83,13,3,17,0.59
2013-5-11,78.3,60.8,53.5,62.0,57.1,50.0,97,89,40,30.15,29.98,12,1,20,0.01
2013-5-12,78.0,63.7,51.5,54.0,50.4,45.1,95,66,32,30.27,30.13,11,2,13,0.00
2013-5-13,84.2,66.0,45.0,58.3,50.7,43.0,96,63,30,30.26,30.13,11,2,12,0.00
2013-5-14,78.1,66.6,61.4,62.4,57.8,53.6,83,74,51,30.18,30.12,11,4,14,0.00
2013-5-15,82.5,76.2,70.1,73.3,70.1,63.4,94,82,67,29.98,29.75,19,6,23,0.08
2013-5-16,85.3,70.7,62.3,74.0,67.0,59.9,97,88,66,29.93,29.68,23,4,23,0.99
2013-5-17,87.1,78.7,73.4,75.3,72.2,70.0,93,81,65,29.84,29.74,16,5,22,0.00
2013-5-18,91.8,80.2,70.2,74.8,70.3,66.8,92,73,52,29.87,29.73,20,6,25,0.00
2013-5-19,89.1,79.3,70.9,74.8,70.1,66.4,89,74,60,29.82,29.67,23,7,23,0.00
2013-5-20,89.3,80.4,72.9,74.0,70.9,69.0,88,73,58,29.82,29.65,18,5,22,0.00
2013-5-21,84.7,74.1,60.2,74.0,68.3,58.1,94,83,66,29.87,29.66,20,5,22,0.17
2013-5-22,85.3,70.3,53.3,68.9,59.5,52.2,97,72,39,29.93,29.81,8,2,11,0.01
2013-5-23,84.0,77.4,72.8,74.6,72.1,69.0,96,84,72,30.03,29.87,12,3,17,0.05
2013-5-24,82.8,73.5,66.6,74.3,70.2,64.7,97,90,70,30.15,29.96,13,2,16,0.54
2013-5-25,80.6,72.0,66.4,73.7,68.8,65.0,97,90,70,30.13,30.01,17,3,21,0.01
2013-5-26,86.5,77.7,71.8,74.6,71.0,68.8,93,81,64,30.07,29.91,18,6,20,0.00
2013-5-27,87.6,77.9,70.6,73.4,69.8,67.6,91,77,60,29.98,29.77,20,6,21,0.00
2013-5-28,88.3,79.1,70.9,72.5,69.7,68.0,91,74,56,29.86,29.72,17,7,23,0.00
2013-5-29,84.4,76.8,73.2,75.4,71.2,68.7,92,83,70,29.82,29.66,20,7,23,0.02
2013-5-30,88.9,80.1,74.0,75.8,72.2,69.9,90,77,59,29.79,29.68,23,6,23,0.00
2013-5-31,88.3,81.1,75.2,76.2,73.3,71.5,92,78,65,29.82,29.68,19,6,19,0.00
2013-6-1,92.2,82.4,75.8,77.3,73.4,70.8,87,75,59,29.90,29.73,21,5,24,0.00
2013-6-2,85.0,75.2,66.3,70.8,64.4,59.0,95,71,43,30.04,29.88,17,2,21,0.37
2013-6-3,90.0,73.5,55.0,68.3,61.2,53.0,97,69,35,29.99,29.81,9,2,14,0.00
2013-6-4,91.7,80.5,69.0,71.9,67.8,63.6,93,67,40,29.90,29.73,16,4,21,0.00
2013-6-5,90.7,79.7,70.5,72.0,68.8,66.0,91,71,49,29.87,29.70,16,2,19,0.00
2013-6-6,87.2,77.0,69.0,70.7,67.6,64.0,93,74,50,29.91,29.77,18,4,19,0.02
2013-6-7,83.3,72.2,61.1,65.7,60.2,54.5,97,70,40,29.99,29.86,12,2,13,0.00
2013-6-8,89.5,75.3,55.6,67.7,60.9,53.2,94,64,39,29.93,29.75,12,3,16,0.00
2013-6-9,88.1,76.9,65.9,72.3,68.5,63.3,95,77,52,29.93,29.81,14,2,17,0.21
2013-6-10,96.8,80.9,65.6,72.7,66.3,54.1,98,66,25,29.97,29.87,13,2,14,0.00
2013-6-11,92.8,79.4,72.8,73.8,71.7,68.0,95,79,47,30.00,29.89,12,3,19,0.00
2013-6-12,93.9,87.1,71.5,74.3,71.1,67.7,96,60,47,30.02,29.90,14,4,16,0.00
2013-6-13,95.1,79.8,68.8,75.0,69.5,66.2,96,73,44,30.04,29.86,12,2,14,0.00
2013-6-14,93.6,85.1,69.9,76.0,70.4,66.0,88,63,47,29.97,29.84,12,2,12,0.00
2013-6-15,89.8,82.5,73.3,75.0,70.6,66.7,92,68,48,29.97,29.86,11,2,12,0.00
2013-6-16,96.0,84.1,73.9,74.7,70.5,67.0,88,66,42,29.99,29.83,15,3,19,0.00
2013-6-17,95.4,83.0,74.3,75.0,71.1,67.8,89,69,45,29.99,29.80,15,3,17,0.00
2013-6-18,89.7,79.4,69.7,74.4,70.5,66.5,95,75,52,29.97,29.85,14,2,19,0.27
2013-6-19,94.4,81.5,71.8,74.5,71.1,66.8,95,73,45,29.94,29.85,15,3,20,0.00
2013-6-20,94.4,83.7,73.0,73.4,69.8,66.6,90,65,41,30.02,29.90,16,4,20,0.00
2013-6-21,95.2,84.0,73.6,73.7,69.9,64.8,93,66,39,30.04,29.91,16,4,22,0.00
2013-6-22,95.5,85.2,74.0,73.6,69.6,65.8,90,62,39,30.01,29.84,17,6,22,0.00
2013-6-23,95.7,84.5,73.6,73.5,70.2,66.6,90,64,39,29.95,29.83,18,5,19,0.00
2013-6-24,97.0,84.9,75.6,73.0,70.0,66.0,87,64,38,29.99,29.83,24,6,24,0.00
2013-6-25,97.3,86.4,75.9,74.0,67.5,63.5,86,55,35,29.96,29.80,16,6,25,0.00
2013-6-26,98.2,89.6,75.8,75.2,70.7,65.8,84,55,37,29.93,29.82,17,5,19,0.00
2013-6-27,100.5,86.1,73.9,72.7,68.2,59.2,90,59,29,30.00,29.83,14,3,16,0.00
2013-6-28,103.8,87.6,71.8,71.0,66.2,61.8,84,53,26,29.94,29.74,11,2,13,0.00
2013-6-29,102.6,88.1,71.6,71.3,64.6,58.9,84,50,28,29.84,29.72,13,3,18,0.00
2013-6-30,95.6,82.5,67.6,67.6,61.9,56.5,93,53,29,29.90,29.78,13,2,13,0.02
2013-7-1,88.4,75.6,61.5,61.5,55.8,52.0,80,53,31,30.00,29.89,16,3,17,0.00
2013-7-2,90.2,75.3,59.8,59.4,51.7,40.5,83,49,18,30.07,29.95,16,3,21,0.00
2013-7-3,91.6,74.9,55.0,61.5,50.6,46.4,78,47,22,30.03,29.89,12,2,15,0.00
2013-7-4,94.1,81.6,66.1,66.0,59.6,54.0,84,51,27,29.96,29.84,10,2,14,0.00
2013-7-5,96.7,84.1,66.1,67.0,61.1,57.0,87,50,28,29.95,29.81,11,3,15,0.00
2013-7-6,96.3,87.2,68.5,69.6,64.6,59.0,85,49,30,29.91,29.79,15,4,18,0.00
2013-7-7,97.3,84.9,70.5,73.7,68.5,61.1,89,61,31,29.95,29.85,18,3,19,0.00
2013-7-8,89.7,82.1,76.3,73.4,71.1,62.9,86,70,44,30.05,29.94,18,4,19,0.00
2013-7-9,98.4,85.8,73.0,73.0,69.6,64.3,94,62,34,30.11,29.94,17,4,20,0.00
2013-7-10,100.9,88.4,73.8,73.0,69.4,63.5,88,57,30,30.05,29.86,15,3,16,0.00
2013-7-11,100.8,89.5,75.9,73.5,69.5,63.3,81,54,32,29.95,29.80,12,4,16,0.00
2013-7-12,100.4,86.8,71.5,69.3,66.6,63.2,82,54,32,29.92,29.82,14,2,17,0.00
2013-7-13,102.4,88.8,71.5,70.6,64.5,58.2,82,48,25,29.94,29.79,12,2,13,0.00
2013-7-14,87.1,73.5,66.6,67.0,62.9,57.0,95,72,43,29.97,29.81,19,3,22,0.85
2013-7-15,73.4,68.9,66.2,72.5,67.8,64.7,97,96,92,30.05,29.92,10,3,20,2.26
2013-7-16,86.8,76.1,68.0,76.8,71.9,66.8,97,88,63,30.14,30.01,15,2,15,0.09
2013-7-17,87.0,75.4,71.3,75.8,72.2,69.6,96,90,63,30.17,30.09,15,2,17,0.04
2013-7-18,92.3,80.4,69.4,75.1,70.0,66.0,98,74,43,30.16,29.97,11,2,15,0.01
2013-7-19,93.3,78.4,68.8,73.0,69.7,66.0,96,77,42,30.04,29.88,12,2,18,0.00
2013-7-20,93.1,75.8,71.5,74.6,70.6,68.9,93,85,48,29.97,29.81,9,1,16,0.00
2013-7-21,94.6,81.9,71.3,75.0,72.8,70.0,96,76,48,29.91,29.82,14,3,24,0.00
2013-7-22,94.8,84.7,74.9,76.0,73.7,72.0,93,71,50,29.95,29.83,13,4,18,0.00
2013-7-23,95.1,84.6,77.0,76.0,72.2,68.0,88,68,41,29.95,29.80,11,4,18,0.00
2013-7-24,92.8,84.0,75.4,77.0,74.2,69.0,90,73,56,29.97,29.84,8,2,15,0.00
2013-7-25,95.5,87.8,72.0,76.2,72.4,69.1,93,62,46,29.99,29.91,10,2,11,0.00
2013-7-26,97.1,84.9,76.0,75.8,72.1,67.6,92,67,44,29.98,29.80,12,3,15,0.01
2013-7-27,87.2,78.4,72.5,74.3,70.6,67.4,93,78,57,29.99,29.87,12,3,14,0.00
2013-7-28,93.1,77.1,71.3,76.0,70.0,67.0,88,80,51,29.95,29.81,12,2,14,0.00
2013-7-29,96.1,85.2,76.4,76.0,70.8,62.7,91,65,37,29.97,29.88,18,5,20,0.00
2013-7-30,96.4,85.7,75.4,75.3,70.9,65.9,87,64,41,30.05,29.92,17,5,18,0.00
2013-7-31,100.3,86.5,74.8,72.8,68.8,64.3,88,59,32,30.05,29.88,14,2,15,0.00
2013-8-1,100.7,87.2,73.9,75.8,69.5,63.8,84,58,32,29.98,29.84,10,1,12,0.00
2013-8-2,98.6,87.1,73.8,72.2,68.1,61.0,82,55,31,29.93,29.83,17,2,17,0.00
2013-8-3,97.4,86.0,75.6,73.0,69.9,66.0,86,60,36,29.97,29.89,9,3,16,0.00
2013-8-4,95.5,85.9,76.2,75.0,72.5,69.0,86,66,47,30.04,29.89,11,3,14,0.00
2013-8-5,94.8,85.9,73.5,73.0,68.1,65.9,82,56,40,29.99,29.81,13,3,16,0.00
2013-8-6,100.0,87.6,74.7,74.5,70.2,66.2,83,59,36,29.90,29.75,15,4,18,0.00
2013-8-7,101.3,88.4,76.0,76.3,71.8,63.5,85,61,31,29.87,29.73,15,4,20,0.00
2013-8-8,101.0,92.3,75.2,72.2,64.0,56.2,88,42,24,29.84,29.73,12,3,14,0.00
2013-8-9,100.1,85.2,71.1,73.6,65.6,55.3,92,56,24,29.93,29.81,14,3,15,0.00
2013-8-10,101.3,85.8,71.1,73.5,67.3,57.8,94,58,28,30.01,29.88,25,2,28,0.08
2013-8-11,97.3,83.9,72.4,76.6,72.1,68.7,96,71,41,30.05,29.92,15,2,19,0.01
2013-8-12,96.7,84.3,72.1,73.8,69.9,67.0,92,65,41,30.03,29.89,14,2,15,0.00
2013-8-13,100.6,87.8,77.2,73.5,69.5,65.2,79,57,33,29.99,29.82,11,2,14,0.00
2013-8-14,93.3,80.2,72.9,77.2,71.8,65.1,91,76,51,29.98,29.86,16,2,16,0.11
2013-8-15,88.9,78.4,72.3,76.1,72.6,70.7,95,84,57,30.01,29.90,9,1,11,0.02
2013-8-16,89.3,77.2,70.2,73.0,68.2,63.5,97,76,45,30.05,29.91,14,2,16,0.01
2013-8-17,91.5,78.6,67.6,66.6,62.5,57.9,84,61,35,30.06,29.92,16,2,16,0.00
2013-8-18,92.3,77.4,60.4,65.5,61.1,56.5,89,60,37,30.06,29.95,14,2,14,0.00
2013-8-19,94.5,79.1,61.6,68.0,61.7,57.0,86,58,35,30.03,29.89,10,2,13,0.00
2013-8-20,95.5,82.2,65.1,69.6,63.1,58.5,89,56,31,30.01,29.90,13,3,16,0.00
2013-8-21,92.5,81.5,69.5,72.8,69.1,66.2,91,68,47,30.06,29.94,11,2,13,0.00
2013-8-22,96.9,85.1,70.9,74.2,70.0,67.4,90,63,39,30.06,29.88,10,2,14,0.00
2013-8-23,97.3,85.0,74.0,74.2,69.4,66.3,89,63,38,30.00,29.85,13,2,13,0.00
2013-8-24,99.7,85.9,72.4,72.6,68.3,59.4,84,59,27,30.02,29.89,14,2,16,0.00
2013-8-25,95.2,84.4,71.6,72.7,68.5,65.4,84,60,44,30.08,29.98,15,3,19,0.00
2013-8-26,93.1,82.2,72.6,72.2,69.5,67.3,88,67,44,30.11,29.99,18,4,19,0.00
2013-8-27,84.3,76.0,71.5,74.3,70.9,68.9,94,85,66,30.10,30.00,16,2,17,0.12
2013-8-28,95.7,80.8,67.3,74.3,68.1,63.8,98,70,37,30.09,29.96,11,2,14,0.01
2013-8-29,100.5,85.4,72.4,73.1,67.0,62.2,85,58,29,30.05,29.91,10,1,12,0.00
2013-8-30,102.3,86.3,70.1,68.1,64.1,59.2,81,52,26,29.98,29.82,10,2,12,0.00
2013-8-31,102.6,87.9,72.1,71.0,67.0,63.3,84,53,29,29.89,29.75,10,2,12,0.00
2013-9-1,100.9,87.1,74.9,72.0,69.1,66.2,80,57,35,29.87,29.75,12,2,14,0.00
2013-9-2,95.8,84.6,76.9,71.3,69.1,-99.9,77,61,42,29.94,29.82,14,2,18,0.00
2013-9-3,100.0,85.4,70.7,71.6,68.0,65.3,85,59,34,29.97,29.81,10,1,12,0.00
2013-9-4,100.5,87.7,73.7,71.4,68.5,63.8,81,56,31,30.01,29.87,16,3,16,0.00
2013-9-5,98.1,86.9,70.7,75.0,70.6,67.0,90,62,37,30.07,29.94,17,3,22,0.06
2013-9-6,98.4,88.7,69.9,74.0,65.3,61.6,96,49,32,30.06,29.90,13,2,14,0.00
2013-9-7,79.5,16.1,0.0,69.3,11.3,-99.9,71,14,71,29.99,0.00,9,-25,22,0.00
2013-9-8,0.0,0.0,0.0,0.0,-2.0,-99.9,0,0,100,30.01,29.87,0,-20,0,0.00
2013-9-9,94.1,45.0,0.0,71.3,35.1,-99.9,94,31,40,30.01,29.85,23,-6,33,0.05
2013-9-10,89.3,80.3,67.5,76.9,71.5,66.0,97,76,55,30.06,29.92,15,3,16,0.30
2013-9-11,93.7,74.6,66.0,73.9,68.0,64.7,98,82,39,30.10,29.96,11,1,15,0.00
2013-9-12,95.0,81.0,66.9,72.4,66.3,63.9,94,65,38,30.04,29.88,13,1,15,0.00
2013-9-13,97.9,85.1,69.0,70.4,65.4,62.2,88,55,32,29.94,29.77,12,2,14,0.00
2013-9-14,96.8,90.3,73.9,69.0,65.5,62.4,75,45,33,29.90,29.79,12,3,13,0.00
2013-9-15,93.0,85.2,70.7,72.6,69.2,66.9,91,60,44,30.00,29.88,14,2,15,0.00
2013-9-16,92.8,82.7,69.9,73.1,65.8,58.7,88,60,33,30.05,29.93,13,2,16,0.00
2013-9-17,92.4,79.2,70.6,74.7,70.0,66.8,89,75,46,30.04,29.89,12,1,16,0.02
2013-9-18,95.3,81.2,69.4,74.1,68.9,64.9,95,70,39,29.99,29.84,16,2,17,0.00
2013-9-19,92.0,79.3,74.2,74.2,71.9,69.3,96,79,52,29.95,29.80,16,2,23,0.45
2013-9-20,75.7,73.7,70.2,75.0,72.6,68.0,97,96,93,29.88,29.76,17,3,23,2.45
2013-9-21,82.7,73.2,56.0,69.0,55.9,44.3,94,59,28,29.95,29.83,18,6,19,2.45
2013-9-22,81.9,71.3,50.0,59.6,54.9,48.0,97,59,36,29.93,29.78,11,3,14,0.00
2013-9-23,87.3,75.3,52.7,60.6,56.5,47.0,96,56,25,29.85,29.74,11,2,13,0.00
2013-9-24,92.8,80.0,58.8,67.0,61.2,57.0,95,57,32,29.92,29.81,11,2,12,0.00
2013-9-25,93.9,81.9,59.4,66.7,60.6,53.5,96,52,30,29.88,29.75,8,1,12,0.00
2013-9-26,90.6,77.0,62.2,66.1,60.2,53.8,85,59,29,29.87,29.77,15,2,18,0.00
2013-9-27,88.4,79.7,71.9,74.5,71.6,66.1,92,77,61,29.90,29.80,18,4,19,0.00
2013-9-28,88.8,81.0,67.9,77.2,73.8,66.0,94,79,64,30.00,29.83,17,4,21,0.32
2013-9-29,76.4,67.6,59.8,65.0,61.4,57.6,95,82,53,30.05,29.92,9,2,12,0.10
2013-9-30,86.5,76.2,55.8,63.5,56.9,51.8,96,55,31,29.94,29.80,9,1,9,0.01
2013-10-1,87.8,77.6,59.7,72.1,68.1,57.0,97,74,47,29.91,29.82,13,3,14,0.00
2013-10-2,88.8,78.6,73.2,74.4,71.7,69.9,93,80,57,29.95,29.82,13,4,16,0.00
2013-10-3,90.6,83.2,72.4,74.8,71.6,68.9,96,70,50,29.90,29.78,15,4,19,0.00
2013-10-4,88.7,81.7,72.5,72.0,70.3,68.8,92,69,53,29.88,29.79,16,5,20,0.00
2013-10-5,81.5,68.7,58.2,74.1,60.4,43.7,95,76,54,30.09,29.83,21,5,21,0.00
2013-10-6,77.1,62.2,49.2,52.2,44.9,33.7,92,60,21,30.14,30.05,16,4,18,0.00
2013-10-7,82.7,67.7,45.1,48.1,43.7,36.3,87,47,22,30.17,30.04,8,1,11,0.00
2013-10-8,82.9,63.2,44.2,54.0,46.2,41.5,92,59,28,30.10,29.97,10,1,12,0.00
2013-10-9,82.5,65.9,47.1,60.8,53.1,44.0,92,66,39,30.06,29.94,16,2,16,0.00
2013-10-10,84.2,67.4,59.3,67.1,60.4,55.2,94,79,52,30.03,29.86,13,2,16,0.00
2013-10-11,86.8,79.2,69.6,72.9,70.8,65.0,90,76,61,29.92,29.80,17,4,17,0.00
2013-10-12,89.0,77.3,71.4,75.6,71.3,64.8,94,82,51,30.05,29.87,15,3,19,0.01
2013-10-13,75.2,70.4,66.7,69.0,67.4,65.5,97,91,79,30.16,30.01,11,3,14,1.53
2013-10-14,74.2,71.6,69.4,72.9,70.1,68.0,98,95,89,30.09,29.91,15,3,18,0.29
2013-10-15,76.3,67.7,54.1,72.5,65.8,52.7,96,94,86,30.02,29.90,13,4,16,0.57
2013-10-16,62.5,56.3,51.7,56.9,53.2,50.0,96,90,77,30.10,29.98,14,4,14,1.11
2013-10-17,73.0,57.5,44.5,54.8,49.6,43.0,96,78,44,30.16,29.98,8,1,10,0.00
2013-10-18,70.9,61.8,52.2,63.0,57.1,50.5,96,85,63,30.08,29.89,16,1,21,0.18
2013-10-19,65.5,53.7,43.9,53.1,45.3,41.7,92,76,46,30.22,30.07,16,4,23,0.02
2013-10-20,74.4,56.9,39.4,53.3,46.3,37.8,96,71,41,30.10,29.89,13,3,18,0.00
2013-10-21,79.0,67.2,57.5,68.7,60.5,50.3,90,79,68,30.08,29.90,14,3,18,0.00
2013-10-22,76.3,60.1,46.9,55.6,48.6,44.7,94,70,33,30.18,30.06,12,2,16,0.00
2013-10-23,85.0,62.6,49.6,60.0,48.6,45.9,88,65,27,30.15,30.06,8,1,11,0.00
2013-10-24,83.9,63.8,46.2,58.8,50.4,44.0,95,66,30,30.23,30.10,9,1,10,0.00
2013-10-25,76.3,62.6,49.8,62.4,55.7,47.9,95,79,58,30.35,30.21,12,2,13,0.00
2013-10-26,80.4,68.1,60.6,67.8,61.7,56.5,95,81,62,30.22,30.00,17,3,20,0.54
2013-10-27,69.3,65.2,61.2,66.4,63.1,59.8,97,93,83,30.12,30.00,11,1,13,0.23
2013-10-28,78.8,70.4,62.5,71.5,67.0,61.6,98,89,73,30.09,29.97,14,2,18,0.00
2013-10-29,83.7,74.6,69.8,74.3,70.2,67.7,96,87,68,30.05,29.94,17,3,18,0.00
2013-10-30,84.1,75.4,72.3,77.6,73.3,70.0,98,93,76,30.02,29.78,12,2,14,0.62
2013-10-31,78.9,70.1,50.0,73.3,58.4,37.7,97,72,23,29.88,29.68,22,4,25,0.04
2013-11-1,81.9,62.8,45.6,56.4,47.6,43.8,97,64,27,30.08,29.80,15,2,20,0.01
2013-11-2,70.4,58.3,43.9,49.4,44.3,40.0,89,63,34,30.29,30.08,16,3,16,0.00
2013-11-3,68.7,55.3,38.3,54.5,43.9,36.5,95,69,38,30.24,29.98,15,3,18,0.00
2013-11-4,65.3,62.1,58.2,64.0,59.4,54.5,97,91,79,30.06,29.98,18,2,18,0.10
2013-11-5,78.5,70.7,64.6,72.0,68.2,63.7,98,92,77,30.02,29.88,14,3,15,0.00
2013-11-6,72.9,60.1,48.7,71.3,55.1,42.3,96,84,58,30.36,29.94,17,4,19,0.11
2013-11-7,64.6,50.9,37.0,49.4,41.9,35.2,96,74,41,30.50,30.36,17,2,17,0.00
2013-11-8,64.6,55.1,45.7,50.1,46.0,41.2,95,74,46,30.42,30.16,13,1,14,0.00
2013-11-9,70.3,62.3,57.6,60.1,54.0,47.0,90,74,67,30.19,30.09,14,2,18,0.00
2013-11-10,72.1,61.0,49.8,60.5,55.3,47.6,97,83,64,30.33,30.18,8,1,11,0.00
2013-11-11,76.2,58.1,44.2,59.9,52.0,42.9,97,82,55,30.30,30.16,6,1,6,0.01
2013-11-12,59.4,50.9,38.2,57.1,41.5,27.0,97,72,46,30.67,30.27,26,6,26,0.00
2013-11-13,54.8,39.0,28.1,34.2,29.2,24.7,90,70,38,30.70,30.42,8,1,10,0.00
2013-11-14,63.9,51.3,28.2,49.7,38.8,26.0,95,65,33,30.42,30.05,16,3,21,0.00
2013-11-15,79.8,64.7,54.0,62.9,57.4,49.4,95,79,52,30.05,29.83,12,2,15,0.00
2013-11-16,79.3,72.2,64.7,72.0,66.8,61.1,91,83,71,29.87,29.69,17,5,23,0.00
2013-11-17,88.8,73.9,56.3,73.4,63.6,52.0,98,74,33,29.94,29.71,13,2,20,0.00
2013-11-18,75.0,66.5,55.4,53.2,48.3,44.9,89,53,41,30.13,29.94,14,3,16,0.00
2013-11-19,71.1,60.5,49.8,49.3,46.5,44.6,84,61,42,30.17,29.99,15,2,16,0.00
2013-11-20,69.2,60.1,52.6,64.0,51.6,46.0,91,74,66,30.02,29.89,13,2,15,0.00
2013-11-21,82.6,75.5,49.9,74.8,70.6,48.0,98,85,72,30.15,29.91,18,3,24,0.48
2013-11-22,49.7,39.0,35.8,48.0,36.8,33.4,94,92,89,30.45,30.14,26,9,26,0.72
2013-11-23,43.3,39.7,36.6,40.0,37.0,34.8,94,90,77,30.54,30.43,17,8,21,0.28
2013-11-24,42.2,37.5,34.3,35.7,32.6,30.8,93,83,73,30.56,30.36,16,6,19,0.12
2013-11-25,39.6,37.3,34.3,38.0,35.5,32.5,95,93,91,30.39,30.15,15,3,18,0.40
2013-11-26,53.7,44.0,35.4,40.9,35.6,30.8,93,74,49,30.39,30.16,21,6,26,0.00
2013-11-27,49.7,37.9,29.2,32.2,26.6,21.0,88,66,32,30.51,30.37,15,3,18,0.00
2013-11-28,56.9,39.3,28.0,35.1,29.9,25.7,93,73,36,30.49,30.37,11,1,12,0.00
2013-11-29,61.6,44.8,27.3,48.8,38.8,25.3,94,81,59,30.54,30.37,10,1,14,0.00
2013-11-30,64.5,55.8,48.1,56.3,50.7,45.0,95,83,70,30.39,30.18,14,2,15,0.00
2013-12-1,70.9,63.2,55.9,62.0,58.4,53.9,96,85,71,30.19,29.91,15,2,15,0.00
2013-12-2,81.6,60.4,46.5,58.5,49.9,43.0,97,74,31,29.91,29.64,10,1,13,0.00
2013-12-3,85.2,62.1,43.1,53.0,46.7,40.9,94,63,24,29.68,29.56,12,1,14,0.00
2013-12-4,75.3,65.3,52.0,67.0,57.8,46.1,94,78,45,29.78,29.61,14,2,17,0.00
2013-12-5,63.3,40.6,31.6,61.8,33.3,25.0,95,76,60,30.16,29.78,21,9,25,0.00
2013-12-6,34.4,31.3,27.3,32.3,28.1,23.1,92,88,83,30.52,30.11,18,7,20,0.00
2013-12-7,27.4,25.9,23.3,25.0,22.3,19.0,92,86,82,30.56,30.33,13,6,19,0.00
2013-12-8,40.1,34.0,26.6,39.0,32.0,24.3,95,92,90,30.33,30.08,8,0,8,0.08
2013-12-9,39.3,36.2,33.0,38.0,34.2,28.7,96,93,83,30.44,30.12,16,5,17,0.02
2013-12-10,46.1,32.3,23.1,29.0,24.9,20.0,89,75,44,30.57,30.38,11,3,14,0.00
2013-12-11,56.4,39.1,25.3,36.0,29.9,23.0,93,72,42,30.61,30.36,12,2,13,0.00
2013-12-12,51.5,36.7,26.6,37.0,32.0,24.0,93,83,58,30.64,30.33,4,0,7,0.00
2013-12-13,50.5,46.1,39.5,49.4,42.3,35.4,96,87,72,30.33,29.87,13,2,13,0.06
2013-12-14,50.2,44.5,36.0,49.1,40.1,30.8,96,85,68,30.36,29.84,20,4,24,0.00
2013-12-15,63.6,44.3,31.9,40.0,33.8,28.0,88,70,35,30.42,30.27,8,1,9,0.00
2013-12-16,70.2,50.6,32.1,42.0,36.7,29.0,90,62,30,30.31,30.17,11,2,14,0.00
2013-12-17,74.9,50.1,33.1,46.4,38.3,30.5,91,69,28,30.33,30.22,9,1,9,0.00
2013-12-18,71.4,53.2,33.7,56.2,45.4,31.7,94,77,53,30.29,30.04,15,3,19,0.00
2013-12-19,76.2,65.1,54.8,65.0,59.2,51.5,93,82,62,30.04,29.77,24,6,25,0.00
2013-12-20,73.6,65.7,42.8,68.0,61.6,40.8,94,87,79,29.83,29.70,19,4,24,0.00
2013-12-21,66.3,49.8,39.5,58.3,46.4,37.7,97,89,63,29.81,29.59,14,2,19,0.64
2013-12-22,49.0,43.2,32.3,43.3,36.4,28.4,93,77,58,30.41,29.81,19,5,20,0.00
2013-12-23,52.4,36.0,25.2,36.7,30.0,23.2,94,80,51,30.58,30.40,8,1,9,0.00
2013-12-24,57.4,42.9,25.5,38.7,33.1,23.5,93,71,44,30.56,30.29,13,2,16,0.00
2013-12-25,63.2,46.5,34.0,51.5,40.4,31.7,95,80,62,30.44,30.28,16,2,16,0.00
2013-12-26,55.5,41.7,31.4,42.8,36.5,29.6,95,83,59,30.47,30.34,6,1,8,0.00
2013-12-27,59.2,42.9,31.5,45.4,37.8,29.7,95,83,57,30.49,30.35,8,1,10,0.00
2013-12-28,63.7,47.6,32.6,47.9,39.9,30.9,96,77,53,30.36,30.00,11,2,12,0.00
2013-12-29,56.5,48.8,33.5,50.9,45.7,29.0,95,89,79,30.32,29.96,14,2,24,0.01
2013-12-30,45.4,36.7,30.0,33.2,28.6,24.7,87,73,54,30.44,30.28,11,2,16,0.00
2013-12-31,56.3,41.3,28.4,34.9,31.4,25.9,93,70,41,30.50,30.25,8,1,12,0.00
2014-1-1,73.8,53.7,33.1,56.9,44.1,29.4,89,71,54,30.25,29.93,22,4,22,0.00
2014-1-2,50.0,35.2,25.9,38.7,26.2,21.5,83,70,38,30.50,30.17,21,6,26,0.00